createdAt,value
2023-02-24T00:01:25.867Z,43.33
2023-02-24T00:04:15.842Z,41.03
2023-02-24T00:07:08.178Z,41.60
2023-02-24T00:09:58.225Z,42.60
2023-02-24T00:12:49.251Z,39.38
2023-02-24T00:15:39.443Z,36.60
2023-02-24T00:18:30.062Z,48.47
2023-02-24T00:21:20.505Z,39.17
2023-02-24T00:24:12.860Z,44.72
2023-02-24T00:27:07.717Z,43.80
2023-02-24T00:29:58.557Z,37.47
2023-02-24T00:32:48.836Z,40.40
2023-02-24T00:35:39.278Z,41.95
2023-02-24T00:38:31.789Z,41.88
2023-02-24T00:41:32.676Z,49.53
2023-02-24T00:44:24.362Z,49.00
2023-02-24T00:47:18.451Z,49.83
2023-02-24T00:50:09.316Z,48.90
2023-02-24T00:52:59.229Z,44.40
2023-02-24T00:55:59.415Z,44.80
2023-02-24T00:58:49.976Z,46.55
2023-02-24T01:01:41.655Z,42.88
2023-02-24T01:04:32.008Z,44.47
2023-02-24T01:07:22.431Z,44.17
2023-02-24T01:10:12.774Z,42.30
2023-02-24T01:13:02.939Z,46.03
2023-02-24T01:16:02.431Z,45.90
2023-02-24T01:18:52.818Z,47.75
2023-02-24T01:21:42.999Z,44.42
2023-02-24T01:24:39.029Z,47.28
2023-02-24T01:27:31.434Z,43.03
2023-02-24T01:30:21.508Z,49.03
2023-02-24T01:33:14.717Z,47.28
2023-02-24T01:36:21.871Z,46.50
2023-02-24T01:39:13.562Z,44.50
2023-02-24T01:42:06.120Z,42.83
2023-02-24T01:45:12.737Z,47.60
2023-02-24T01:48:06.795Z,45.10
2023-02-24T01:50:57.051Z,41.15
2023-02-24T01:53:47.803Z,45.97
2023-02-24T01:56:41.235Z,42.63
2023-02-24T01:59:35.785Z,44.42
2023-02-24T02:02:26.983Z,46.35
2023-02-24T02:05:18.495Z,43.40
2023-02-24T02:08:10.361Z,51.38
2023-02-24T02:11:14.113Z,55.50
2023-02-24T02:14:04.250Z,49.05
2023-02-24T02:17:17.360Z,47.10
2023-02-24T02:20:26.584Z,50.97
2023-02-24T02:23:30.755Z,49.63
2023-02-24T02:26:49.687Z,48.85
2023-02-24T02:29:59.319Z,51.38
2023-02-24T02:33:08.040Z,51.00
2023-02-24T02:36:12.566Z,52.05
2023-02-24T02:39:21.998Z,45.47
2023-02-24T02:42:30.223Z,45.83
2023-02-24T02:45:20.302Z,48.03
2023-02-24T02:48:15.368Z,48.45
2023-02-24T02:51:11.250Z,51.13
2023-02-24T02:54:12.188Z,51.72
2023-02-24T02:57:09.558Z,46.88
2023-02-24T03:00:11.071Z,50.47
2023-02-24T03:03:15.077Z,50.78
2023-02-24T03:06:22.347Z,50.78
2023-02-24T03:09:30.073Z,60.10
2023-02-24T03:12:22.765Z,51.35
2023-02-24T03:15:15.765Z,58.95
2023-02-24T03:18:11.941Z,55.92
2023-02-24T03:21:09.422Z,54.38
2023-02-24T03:24:02.452Z,60.38
2023-02-24T03:27:06.896Z,53.17
2023-02-24T03:30:27.876Z,55.50
2023-02-24T03:34:09.546Z,48.97
2023-02-24T03:37:00.169Z,46.60
2023-02-24T03:39:53.416Z,53.15
2023-02-24T03:42:50.365Z,56.58
2023-02-24T03:45:41.702Z,45.67
2023-02-24T03:48:34.766Z,55.13
2023-02-24T03:51:26.227Z,58.10
2023-02-24T03:54:44.711Z,47.92
2023-02-24T03:58:00.101Z,53.70
2023-02-24T04:01:28.885Z,48.85
2023-02-24T04:04:31.622Z,53.28
2023-02-24T04:07:43.656Z,48.05
2023-02-24T04:10:52.487Z,50.38
2023-02-24T04:13:55.598Z,53.40
2023-02-24T04:16:57.153Z,50.67
2023-02-24T04:19:51.468Z,53.50
2023-02-24T04:22:49.436Z,53.97
2023-02-24T04:25:45.695Z,66.15
2023-02-24T04:28:37.766Z,58.25
2023-02-24T04:31:31.917Z,64.30
2023-02-24T04:34:22.506Z,62.72
2023-02-24T04:37:13.696Z,67.53
2023-02-24T04:40:10.812Z,66.00
2023-02-24T04:43:01.240Z,63.70
2023-02-24T04:45:51.623Z,67.38
2023-02-24T04:48:41.922Z,75.55
2023-02-24T04:51:33.910Z,71.20
2023-02-24T04:54:24.380Z,77.78
2023-02-24T04:57:14.595Z,78.68
2023-02-24T05:00:20.401Z,88.20
2023-02-24T05:03:12.131Z,84.65
2023-02-24T05:06:02.837Z,83.60
2023-02-24T05:08:52.773Z,81.30
2023-02-24T05:11:49.117Z,84.30
2023-02-24T05:14:39.617Z,80.28
2023-02-24T05:17:29.464Z,86.22
2023-02-24T05:20:38.776Z,87.93
2023-02-24T05:23:31.916Z,85.18
2023-02-24T05:26:26.531Z,89.25
2023-02-24T05:29:16.674Z,83.10
2023-02-24T05:32:08.439Z,87.57
2023-02-24T05:34:58.414Z,88.55
2023-02-24T05:37:48.236Z,81.65
2023-02-24T05:40:45.537Z,85.60
2023-02-24T05:43:36.052Z,88.25
2023-02-24T05:46:33.739Z,87.13
2023-02-24T05:49:29.429Z,94.65
2023-02-24T05:52:20.347Z,93.07
2023-02-24T05:55:14.001Z,95.25
2023-02-24T05:58:07.518Z,103.80
2023-02-24T06:01:05.036Z,109.53
2023-02-24T06:03:55.043Z,95.93
2023-02-24T06:06:44.827Z,96.78
2023-02-24T06:09:35.076Z,97.00
2023-02-24T06:12:34.200Z,103.10
2023-02-24T06:15:24.166Z,93.90
2023-02-24T06:18:14.147Z,93.60
2023-02-24T06:21:04.298Z,104.60
2023-02-24T06:23:59.517Z,99.25
2023-02-24T06:26:50.195Z,94.47
2023-02-24T06:29:40.250Z,101.63
2023-02-24T06:32:30.154Z,94.07
2023-02-24T06:35:21.303Z,92.65
2023-02-24T06:38:11.622Z,96.38
2023-02-24T06:41:04.174Z,105.43
2023-02-24T06:43:54.592Z,92.40
2023-02-24T06:46:46.215Z,97.43
2023-02-24T06:49:36.786Z,92.40
2023-02-24T06:52:27.202Z,102.35
2023-02-24T06:55:26.890Z,98.03
2023-02-24T06:58:19.523Z,100.35
2023-02-24T07:01:22.100Z,99.93
2023-02-24T07:04:12.831Z,101.05
2023-02-24T07:07:03.650Z,94.35
2023-02-24T07:09:53.650Z,94.53
2023-02-24T07:12:43.495Z,98.43
2023-02-24T07:15:36.951Z,95.85
2023-02-24T07:18:27.304Z,91.05
2023-02-24T07:21:17.914Z,85.45
2023-02-24T07:24:09.736Z,96.53
2023-02-24T07:27:02.213Z,96.53
2023-02-24T07:29:53.628Z,95.90
2023-02-24T07:32:46.806Z,94.78
2023-02-24T07:35:37.180Z,93.50
2023-02-24T07:38:27.079Z,102.80
2023-02-24T07:41:19.604Z,93.93
2023-02-24T07:44:10.636Z,103.05
2023-02-24T07:47:01.066Z,100.22
2023-02-24T07:49:51.211Z,103.32
2023-02-24T07:52:41.510Z,108.38
2023-02-24T07:55:35.894Z,105.70
2023-02-24T07:58:28.356Z,109.00
2023-02-24T08:01:28.014Z,103.07
2023-02-24T08:04:23.375Z,101.57
2023-02-24T08:07:14.541Z,101.15
2023-02-24T08:10:24.159Z,98.00
2023-02-24T08:13:14.470Z,100.57
2023-02-24T08:16:05.820Z,108.13
2023-02-24T08:18:57.836Z,96.30
2023-02-24T08:21:51.467Z,91.18
2023-02-24T08:24:43.583Z,99.10
2023-02-24T08:27:40.278Z,96.47
2023-02-24T08:30:30.391Z,101.43
2023-02-24T08:33:22.381Z,95.30
2023-02-24T08:36:12.292Z,95.82
2023-02-24T08:39:02.321Z,99.88
2023-02-24T08:41:54.838Z,99.43
2023-02-24T08:44:46.173Z,103.15
2023-02-24T08:47:36.306Z,100.28
2023-02-24T08:50:33.908Z,105.40
2023-02-24T08:53:29.637Z,107.47
2023-02-24T08:56:26.133Z,111.35
2023-02-24T08:59:36.837Z,101.80
2023-02-24T09:02:29.180Z,104.25
2023-02-24T09:05:19.418Z,106.97
2023-02-24T09:08:09.569Z,108.15
2023-02-24T09:11:08.203Z,101.30
2023-02-24T09:14:01.243Z,96.78
2023-02-24T09:17:03.924Z,103.28
2023-02-24T09:20:12.919Z,91.05
2023-02-24T09:23:04.131Z,91.70
2023-02-24T09:25:54.696Z,86.30
2023-02-24T09:29:05.173Z,92.93
2023-02-24T09:32:04.445Z,81.13
2023-02-24T09:34:55.174Z,88.13
2023-02-24T09:37:45.341Z,74.72
2023-02-24T09:40:39.689Z,85.53
2023-02-24T09:46:42.272Z,87.53
2023-02-24T09:49:46.723Z,94.60
2023-02-24T09:56:05.958Z,111.70
2023-02-24T09:59:12.683Z,109.55
2023-02-24T10:06:12.208Z,107.97
2023-02-24T10:09:40.930Z,103.78
2023-02-24T10:12:40.142Z,110.93
2023-02-24T10:15:57.382Z,115.72
2023-02-24T10:19:01.269Z,114.13
2023-02-24T10:22:08.188Z,115.78
2023-02-24T10:25:11.040Z,110.13
2023-02-24T10:28:35.681Z,117.97
2023-02-24T10:31:35.829Z,116.28
2023-02-24T10:34:31.845Z,111.68
2023-02-24T10:37:28.933Z,104.60
2023-02-24T10:40:43.874Z,92.40
2023-02-24T10:43:45.415Z,100.07
2023-02-24T10:46:41.465Z,109.20
2023-02-24T10:49:42.914Z,101.60
2023-02-24T10:52:58.230Z,91.82
2023-02-24T10:55:48.678Z,109.20
2023-02-24T10:58:44.706Z,92.97
2023-02-24T11:01:55.610Z,99.53
2023-02-24T11:05:02.542Z,94.72
2023-02-24T11:08:36.648Z,99.18
2023-02-24T11:11:54.225Z,105.05
2023-02-24T11:15:16.601Z,102.07
2023-02-24T11:18:08.685Z,93.82
2023-02-24T11:21:05.461Z,100.57
2023-02-24T11:24:02.905Z,96.07
2023-02-24T11:26:53.434Z,102.88
2023-02-24T11:30:20.583Z,100.38
2023-02-24T11:33:26.666Z,97.18
2023-02-24T11:36:25.717Z,102.57
2023-02-24T11:39:34.908Z,90.93
2023-02-24T11:42:37.973Z,91.15
2023-02-24T11:45:34.676Z,97.80
2023-02-24T11:48:32.168Z,83.35
2023-02-24T11:51:28.256Z,83.68
2023-02-24T11:54:18.486Z,89.28
2023-02-24T11:57:16.491Z,87.32
2023-02-24T12:00:22.808Z,86.40
2023-02-24T12:03:37.591Z,86.45
2023-02-24T12:06:37.605Z,89.07
2023-02-24T12:09:38.090Z,90.93
2023-02-24T12:12:37.833Z,103.28
2023-02-24T12:15:41.042Z,90.88
2023-02-24T12:18:37.314Z,89.28
2023-02-24T12:21:34.058Z,87.97
2023-02-24T12:24:24.768Z,76.10
2023-02-24T12:27:52.909Z,85.43
2023-02-24T12:30:57.512Z,79.50
2023-02-24T12:34:23.340Z,87.93
2023-02-24T12:37:54.724Z,79.78
2023-02-24T12:40:58.180Z,91.03
2023-02-24T12:44:02.313Z,89.43
2023-02-24T12:47:05.456Z,75.88
2023-02-24T12:50:34.005Z,71.57
2023-02-24T12:53:36.389Z,78.55
2023-02-24T12:56:30.162Z,74.40
2023-02-24T13:02:34.420Z,73.65
2023-02-24T13:05:32.720Z,72.45
2023-02-24T13:09:06.257Z,77.13
2023-02-24T13:12:12.754Z,77.32
2023-02-24T13:15:05.637Z,63.45
2023-02-24T13:17:58.224Z,65.85
2023-02-24T13:20:48.973Z,66.60
2023-02-24T13:23:41.988Z,66.22
2023-02-24T13:26:32.575Z,66.78
2023-02-24T13:29:25.370Z,80.50
2023-02-24T13:32:29.107Z,64.78
2023-02-24T13:35:19.607Z,61.55
2023-02-24T13:38:24.157Z,64.32
2023-02-24T13:41:23.496Z,60.58
2023-02-24T13:44:22.664Z,60.83
2023-02-24T13:47:29.207Z,63.70
2023-02-24T13:50:52.450Z,53.65
2023-02-24T13:54:04.555Z,58.78
2023-02-24T13:57:20.039Z,58.25
2023-02-24T14:00:28.644Z,57.58
2023-02-24T14:03:24.285Z,59.30
2023-02-24T14:06:25.196Z,53.50
2023-02-24T14:09:19.156Z,54.17
2023-02-24T14:12:15.846Z,57.53
2023-02-24T14:15:13.448Z,56.70
2023-02-24T14:18:05.552Z,57.17
2023-02-24T14:20:57.420Z,51.50
2023-02-24T14:24:02.436Z,51.53
2023-02-24T14:26:57.667Z,52.20
2023-02-24T14:29:51.089Z,50.50
2023-02-24T14:32:43.665Z,52.78
2023-02-24T14:35:45.275Z,50.97
2023-02-24T14:38:39.226Z,56.33
2023-02-24T14:41:29.723Z,55.60
2023-02-24T14:44:28.140Z,53.45
2023-02-24T14:47:22.190Z,51.88
2023-02-24T14:50:24.640Z,53.22
2023-02-24T14:53:18.674Z,48.58
2023-02-24T14:56:11.219Z,44.78
2023-02-24T14:59:12.254Z,58.08
2023-02-24T15:02:10.071Z,51.78
2023-02-24T15:05:00.449Z,55.97
2023-02-24T15:07:51.999Z,49.78
2023-02-24T15:10:46.547Z,50.53
2023-02-24T15:13:41.458Z,53.63
2023-02-24T15:16:42.741Z,49.20
2023-02-24T15:19:34.233Z,46.40
2023-02-24T15:22:33.614Z,52.85
2023-02-24T15:25:37.027Z,53.17
2023-02-24T15:28:34.111Z,52.92
2023-02-24T15:31:24.893Z,50.20
2023-02-24T15:34:25.835Z,50.72
2023-02-24T15:37:23.004Z,55.17
2023-02-24T15:40:25.228Z,46.55
2023-02-24T15:43:32.290Z,37.78
2023-02-24T15:46:30.536Z,43.53
2023-02-24T15:49:20.918Z,46.55
2023-02-24T15:52:10.972Z,47.28
2023-02-24T15:55:02.477Z,40.13
2023-02-24T15:58:01.727Z,48.22
2023-02-24T16:00:52.641Z,42.35
2023-02-24T16:03:43.154Z,44.63
2023-02-24T16:06:33.977Z,49.30
2023-02-24T16:09:36.661Z,44.38
2023-02-24T16:12:34.797Z,46.80
2023-02-24T16:15:33.047Z,45.55
2023-02-24T16:18:25.175Z,40.70
2023-02-24T16:21:16.546Z,39.97
2023-02-24T16:24:07.010Z,38.22
2023-02-24T16:26:57.386Z,46.83
2023-02-24T16:29:49.599Z,39.08
2023-02-24T16:32:39.445Z,38.88
2023-02-24T16:35:30.140Z,42.38
2023-02-24T16:38:21.429Z,39.65
2023-02-24T16:41:14.574Z,46.13
2023-02-24T16:44:04.495Z,39.28
2023-02-24T16:46:54.522Z,37.35
2023-02-24T16:49:44.794Z,38.10
2023-02-24T16:52:34.577Z,36.55
2023-02-24T16:55:24.588Z,40.60
2023-02-24T16:58:15.277Z,35.22
2023-02-24T17:01:05.851Z,42.75
2023-02-24T17:03:56.418Z,41.55
2023-02-24T17:06:47.738Z,39.58
2023-02-24T17:09:37.864Z,38.70
2023-02-24T17:12:27.991Z,38.25
2023-02-24T17:15:21.508Z,45.40
2023-02-24T17:18:11.686Z,47.67
2023-02-24T17:21:02.405Z,40.53
2023-02-24T17:23:52.289Z,42.15
2023-02-24T17:26:42.090Z,36.78
2023-02-24T17:29:32.022Z,36.03
2023-02-24T17:32:22.557Z,42.95
2023-02-24T17:35:12.759Z,36.17
2023-02-24T17:38:02.782Z,39.88
2023-02-24T17:40:52.916Z,44.20
2023-02-24T17:43:43.236Z,38.00
2023-02-24T17:46:33.345Z,49.20
2023-02-24T17:49:23.835Z,40.55
2023-02-24T17:52:13.631Z,48.47
2023-02-24T17:55:04.396Z,42.88
2023-02-24T17:57:56.827Z,40.58
2023-02-24T18:00:47.500Z,37.67
2023-02-24T18:03:37.563Z,38.08
2023-02-24T18:06:27.714Z,42.20
2023-02-24T18:09:18.156Z,45.15
2023-02-24T18:12:08.326Z,45.80
2023-02-24T18:15:07.694Z,48.40
2023-02-24T18:17:58.766Z,47.45
2023-02-24T18:20:48.618Z,44.00
2023-02-24T18:23:40.341Z,47.65
2023-02-24T18:26:31.456Z,43.55
2023-02-24T18:29:22.145Z,41.38
2023-02-24T18:32:12.827Z,42.83
2023-02-24T18:35:03.422Z,46.20
2023-02-24T18:37:56.544Z,44.53
2023-02-24T18:40:46.959Z,46.70
2023-02-24T18:43:37.835Z,49.55
2023-02-24T18:46:27.987Z,43.10
2023-02-24T18:49:18.463Z,44.40
2023-02-24T18:52:08.416Z,42.85
2023-02-24T18:54:58.519Z,48.58
2023-02-24T18:57:49.406Z,47.00
2023-02-24T19:00:39.995Z,51.15
2023-02-24T19:03:30.461Z,42.05
2023-02-24T19:06:22.354Z,42.10
2023-02-24T19:09:12.535Z,50.40
2023-02-24T19:12:03.017Z,44.13
2023-02-24T19:14:53.343Z,42.00
2023-02-24T19:17:44.254Z,42.10
2023-02-24T19:20:34.508Z,51.00
2023-02-24T19:23:24.565Z,43.05
2023-02-24T19:26:19.367Z,43.50
2023-02-24T19:29:10.572Z,46.45
2023-02-24T19:32:01.054Z,48.58
2023-02-24T19:34:51.316Z,42.10
2023-02-24T19:37:41.245Z,42.90
2023-02-24T19:40:30.938Z,56.67
2023-02-24T19:43:20.685Z,48.17
2023-02-24T19:46:12.664Z,38.30
2023-02-24T19:49:04.152Z,45.55
2023-02-24T19:51:55.822Z,44.65
2023-02-24T19:54:45.934Z,40.38
2023-02-24T19:57:36.508Z,45.17
2023-02-24T20:00:26.765Z,43.60
2023-02-24T20:03:16.526Z,44.17
2023-02-24T20:06:08.077Z,45.47
2023-02-24T20:08:58.797Z,47.58
2023-02-24T20:11:50.306Z,45.58
2023-02-24T20:14:40.416Z,46.63
2023-02-24T20:17:30.936Z,45.97
2023-02-24T20:20:21.025Z,45.70
2023-02-24T20:23:10.952Z,49.47
2023-02-24T20:26:01.250Z,46.30
2023-02-24T20:28:51.171Z,43.45
2023-02-24T20:31:42.132Z,41.53
2023-02-24T20:34:35.702Z,45.10
2023-02-24T20:37:25.765Z,47.38
2023-02-24T20:40:16.061Z,48.65
2023-02-24T20:43:08.609Z,32.45
2023-02-24T20:45:59.717Z,22.52
2023-02-24T20:48:50.830Z,19.95
2023-02-24T20:51:42.132Z,21.38
2023-02-24T20:54:32.379Z,12.25
2023-02-24T20:57:22.552Z,8.38
2023-02-24T21:00:13.102Z,6.25
2023-02-24T21:03:07.524Z,4.03
2023-02-24T21:09:00.120Z,2.63
2023-02-24T21:11:50.157Z,4.15
2023-02-24T21:14:43.422Z,3.50
2023-02-24T21:17:34.307Z,2.20
2023-02-24T21:20:24.283Z,4.03
2023-02-24T21:23:16.425Z,2.95
2023-02-24T21:26:07.982Z,3.30
2023-02-24T21:28:59.321Z,3.55
2023-02-24T21:31:50.081Z,6.47
2023-02-24T21:34:40.415Z,9.02
2023-02-24T21:37:31.059Z,6.80
2023-02-24T21:40:21.149Z,5.82
2023-02-24T21:43:11.165Z,5.60
2023-02-24T21:46:03.029Z,6.68
2023-02-24T21:48:55.188Z,7.25
2023-02-24T21:51:49.001Z,8.95
2023-02-24T21:54:39.579Z,9.68
2023-02-24T21:57:30.823Z,6.25
2023-02-24T22:00:21.033Z,10.23
2023-02-24T22:03:11.148Z,9.32
2023-02-24T22:06:01.486Z,6.20
2023-02-24T22:08:52.646Z,7.95
2023-02-24T22:11:42.911Z,6.53
2023-02-24T22:14:32.949Z,6.60
2023-02-24T22:17:22.953Z,9.00
2023-02-24T22:20:14.125Z,8.45
2023-02-24T22:23:03.988Z,13.85
2023-02-24T22:25:53.845Z,9.55
2023-02-24T22:28:49.361Z,8.20
2023-02-24T22:31:43.345Z,10.55
2023-02-24T22:34:33.890Z,11.05
2023-02-24T22:37:24.283Z,11.10
2023-02-24T22:40:14.655Z,14.00
2023-02-24T22:43:05.256Z,13.20
2023-02-24T22:46:01.176Z,12.73
2023-02-24T22:48:51.592Z,10.38
2023-02-24T22:51:42.438Z,10.57
2023-02-24T22:54:32.865Z,11.85
2023-02-24T22:57:22.757Z,11.18
2023-02-24T23:00:20.083Z,10.48
2023-02-24T23:03:10.596Z,12.63
2023-02-24T23:06:03.431Z,13.27
2023-02-24T23:08:54.187Z,10.80
2023-02-24T23:11:44.272Z,9.95
2023-02-24T23:14:34.153Z,13.57
2023-02-24T23:17:24.379Z,9.00
2023-02-24T23:20:16.219Z,10.15
2023-02-24T23:23:06.084Z,10.23
2023-02-24T23:25:57.065Z,10.52
2023-02-24T23:28:47.204Z,9.60
2023-02-24T23:31:38.244Z,12.13
2023-02-24T23:34:28.259Z,13.85
2023-02-24T23:37:18.312Z,9.65
2023-02-24T23:40:14.746Z,10.35
2023-02-24T23:43:05.262Z,13.20
2023-02-24T23:45:55.553Z,13.32
2023-02-24T23:48:45.786Z,15.82
2023-02-24T23:51:47.421Z,19.65
2023-02-24T23:54:38.843Z,13.20
2023-02-24T23:57:29.174Z,11.50
